OMDBFSIA

Guest
Details From OMDB - Dubai Intl
To FSIA - Seychelles Intl
Flight Number -
Tags Generated
Created
Modified
Stats Distance 1,798 nm / 3,329 km
Max Altitude 0 ft / 0 m
Waypoints 4
Social Downloads 3
Likes 0
Share VATSIM

Download

Looking for another format? Having issues loading an existing format? Contact us
Advertisement - Login to hide

Notes

Generated

Route

OMDB GAGLA MAMEL FSIA

ID Type Via Altitude Latitude Longitude Leg Dist Tot Dist Heading (true) Name
O OMDB APT - 0 ft / 0 m 25.26213˚ 55.34757˚ - 0 nm - -
GAGLA FIX - 0 ft / 0 m 18.08472˚ 55.40278˚ 431 nm 431 nm 180° / 180° -
MAMEL FIX - 0 ft / 0 m -4.47637˚ 55.53933˚ 1354 nm 1786 nm 180° / 180° -
O FSIA APT - 0 ft / 0 m -4.66663˚ 55.51080˚ 11 nm 1797 nm 188° / 189° -

Altitude Profile

Advertisement - Login to hide

Weather


0- 5 10 15 20 25 30 35+ Temperature / ° C

Clouds and Precipitation
Forecast for 2018-05-24 00:00 UTC. Updated 2 hours ago

Ground ~20,000 ft ~40,000 ft Winds

OMDB

Details ICAO OMDB (DXB)
Name DUBAI INTL
Region United Arab Emirates
Timezone Asia/Dubai (UTC+4.0)
Stats Elevation 62 ft / 19 m (AMSL)
Location 25.254912° 55.364260°
Runways 2
Magnetic Variation 2.068° E

METAR

OMDB 240100Z 17003KT 130V200 CAVOK 31/15 Q1005 NOSIG

Decode

TAF

TAF OMDB 232259Z 2400/2506 08007KT CAVOK BECMG 2403/2405 18010KT BECMG 2408/2410 32014KT BECMG 2415/2417 09005KT BECMG 2502/2504 18012KT

Decode

Departure Runways

ID Width Length Bearing (true) Bearing (mag) Surface Threshold Offset Overrun Length
12L 197 ft / 60 m 13,124 ft / 4,000 m 121.49° 119.42° Asphalt 1,312 ft / 400 m 395 ft / 120 m
12R 151 ft / 46 m 13,139 ft / 4,005 m 121.48° 119.41° Asphalt 394 ft / 120 m 197 ft / 60 m
30L 151 ft / 46 m 13,139 ft / 4,005 m 301.50° 299.43° Asphalt 2,953 ft / 900 m 197 ft / 60 m
30R 197 ft / 60 m 13,124 ft / 4,000 m 301.51° 299.44° Asphalt 0 ft / 0 m 395 ft / 120 m

FSIA

Details ICAO FSIA (SEZ)
Name SEYCHELLES INTL
Region Seychelles
Timezone Unknown (UTC+0.0)
Stats Elevation 10 ft / 3 m (AMSL)
Location -4.674378° 55.521829°
Runways 1
Magnetic Variation 5.030° W

METAR

FSIA 240100Z AUTO 14007KT //// R13///// // FEW014/// SCT130/// BKN160/// 27/25 Q1010

Decode

TAF

Not found

Destination Runways

ID Width Length Bearing (true) Bearing (mag) Surface Threshold Offset Overrun Length
13 151 ft / 46 m 9,813 ft / 2,991 m 125.18° 130.21° Concrete 1,001 ft / 305 m 279 ft / 85 m
31 151 ft / 46 m 9,813 ft / 2,991 m 305.18° 310.21° Concrete 1,001 ft / 305 m 115 ft / 35 m

Approach Navaids

Runway Type Ident Frequency Range Bearing (true) Bearing (mag) Slope Elevation
31 Localiser SIA 110.30 MHz 18 nm / 33 km 305.21° 310.24° - 10 ft / 3 m (AMSL)
31 Glidescope SIA 110.30 MHz 10 nm / 19 km 305.18° 310.21° 3.00° 10 ft / 3 m (AMSL)
31 DME SIA 110.30 MHz 18 nm / 33 km - - - 10 ft / 3 m (AMSL)

Popular Alternatives